Wilberfoss, United Kingdom
Current Conditions -  °F | °C
As of 10:50 PM on Tuesday 25 Nov 2014 (Local Time) from EGXU Reporting Station
Broken Clouds Broken Clouds  
Wind Chill: 31°   Ceiling: 2200
Heat Index: 37°   Visibility: 3mi
Dew Point: 37°   Wind: 8mph
Humidity: 100%   Direction: 320°NW
Pressure: 30.12"   Gusts: NA
Location:  53.95°N, 0.89°W
Report Text: EGXU 252250Z AUTO 32007KT 4900 // BKN022/// BKN090/// 03/03 Q1020
Loading
Personal Weather Stations






























Interactive Weather Map New forecast layout! Learn more

10-Day Weather Forecast

Advertisements
Track Severe Weather on mobile